Terminal Aerodrome Forecast
Issued by NWS Charleston, WV

Current Version | Previous Version | Graphics & Text | Print | Product List | Glossary On
Versions: 1 2 3 4 5 6 7 8 9 10 11 12 13 14 15 16 17 18 19 20 21 22
000
FTUS41 KRLX 151500 AAC
TAFEKN
TAF AMD
KEKN 151508Z 1515/1612 00000KT P6SM BKN004
      TEMPO 1515/1516 BKN015
     FM151600 VRB03KT P6SM SCT025
     FM160600 26005KT 5SM BR BKN090
     FM160900 28006KT 5SM BR BKN030=

USA.gov is the U.S. government's official web portal to all federal, state and local government web resources and services.